Tzoanna Vi — SYHY — position and weather

sailwx.info

Track history (hours):
 
Tides and Currents Weather Stations Pressure Air Temp Water Temp Dewpoint Dewpoint Depression Visibility Wind Speed Wind Dir Waves Ship Positions

Tzoanna Vi

Last reported at 2018-Apr-18 02:38 UTC. Time now 2018-Apr-20 16:45 UTC.
Position N 37°37' E 023°45'.

Length 84 m; draft 5.7 m.

Type: Cargo ship. MMSI: 237991700.

Date/timePositionNaut miles runAvg speedWind from/ knotsBaromVisibWave heightAir tempDewpointWater temp
2018-Apr-18 02:38N 37°37' E 023°45'2 8.4
2018-Apr-18 02:27N 37°38' E 023°44'4 8.7
2018-Apr-18 02:01N 37°41' E 023°41'4 8.8
2018-Apr-18 01:30N 37°45' E 023°39'4 8.9
2018-Apr-18 01:01N 37°49' E 023°36'4 8.7
2018-Apr-18 00:31N 37°50' E 023°31'4 8.7
2018-Apr-18 00:00N 37°52' E 023°26'4 7.7
2018-Apr-17 23:30N 37°55' E 023°23'4 8.2
2018-Apr-17 23:01N 37°58' E 023°26'3 5.8
2018-Apr-17 22:30N 38°00' E 023°28'4 8.4
2018-Apr-17 22:00N 38°01' E 023°33'2 4.5
2018-Apr-17 21:31N 38°02' E 023°35'0 0.0
2018-Apr-17 21:01N 38°02' E 023°35'0 0.0
2018-Apr-17 20:31N 38°02' E 023°35'0 0.0
2018-Apr-17 20:01N 38°02' E 023°35'0 0.0
2018-Apr-17 19:30N 38°02' E 023°35'0 0.0
2018-Apr-17 19:00N 38°02' E 023°35'0 0.0
2018-Apr-17 18:31N 38°02' E 023°35'0 0.0
2018-Apr-17 18:00N 38°02' E 023°35'0 0.0
2018-Apr-17 17:30N 38°02' E 023°35'0 0.0
2018-Apr-17 17:00N 38°02' E 023°35'0 0.0
2018-Apr-17 16:31N 38°02' E 023°35'0 0.0
2018-Apr-17 16:00N 38°02' E 023°35'0 0.0
2018-Apr-17 15:30N 38°02' E 023°35'0 0.0
2018-Apr-17 15:00N 38°02' E 023°35'0 0.0
2018-Apr-17 14:30N 38°02' E 023°35'0 0.0
2018-Apr-17 14:00N 38°02' E 023°35'0 0.0
2018-Apr-17 13:30N 38°02' E 023°35'0 0.0
2018-Apr-17 13:00N 38°02' E 023°35'0 0.0
2018-Apr-17 12:30N 38°02' E 023°35'0 0.0
2018-Apr-17 12:00N 38°02' E 023°35'0 0.0
2018-Apr-17 11:31N 38°02' E 023°35'0 0.0
2018-Apr-17 11:00N 38°02' E 023°35'0 0.0
2018-Apr-17 10:30N 38°02' E 023°35'0 0.0
2018-Apr-17 10:00N 38°02' E 023°35'0 0.0
2018-Apr-17 09:30N 38°02' E 023°35'0 0.0
2018-Apr-17 09:00N 38°02' E 023°35'0 0.0
2018-Apr-17 08:30N 38°02' E 023°35'0 0.0
2018-Apr-17 08:01N 38°02' E 023°35'0 0.0
2018-Apr-17 07:31N 38°02' E 023°35'0 0.0
2018-Apr-17 07:01N 38°02' E 023°35'0 0.0
2018-Apr-17 06:30N 38°02' E 023°35'0 0.0
2018-Apr-17 06:00N 38°02' E 023°35'2 4.2
2018-Apr-17 05:30N 38°00' E 023°34'4 7.0
2018-Apr-17 05:00N 37°57' E 023°35'4 8.6
2018-Apr-17 04:30N 37°53' E 023°37'5 9.6
2018-Apr-17 04:01N 37°49' E 023°40'5 9.5
2018-Apr-17 03:30N 37°45' E 023°43'5 9.5
2018-Apr-17 02:57N 37°40' E 023°46'4 9.5
2018-Apr-17 02:30N 37°37' E 023°50'  
2018-Apr-11 21:00N 37°38' E 023°50'8 8.4
2018-Apr-11 20:00N 37°42' E 023°41'5 9.2
2018-Apr-11 19:30N 37°46' E 023°38'4 8.4
2018-Apr-11 19:00N 37°49' E 023°34'5 9.1
2018-Apr-11 18:30N 37°50' E 023°28'4 8.9
2018-Apr-11 18:00N 37°51' E 023°23'4 8.9
2018-Apr-11 17:30N 37°52' E 023°17'5 9.0
2018-Apr-11 17:00N 37°53' E 023°12'4 8.9
2018-Apr-11 16:30N 37°53' E 023°06'4 8.0
2018-Apr-11 16:00N 37°55' E 023°01'3 4.9
2018-Apr-11 15:23N 37°57' E 022°58'2 6.7
2018-Apr-11 15:00N 37°58' E 022°56'4 8.7
2018-Apr-11 14:30N 38°01' E 022°51'4 8.5
2018-Apr-11 14:00N 38°04' E 022°48'4 8.7
2018-Apr-11 13:30N 38°08' E 022°46'4 8.9
2018-Apr-11 13:00N 38°12' E 022°44'7 0.2
2018-Apr-09 15:21N 38°18' E 022°40'410.5
2018-Apr-09 15:00N 38°15' E 022°42'510.6
2018-Apr-09 14:30N 38°10' E 022°45'510.8
2018-Apr-09 14:00N 38°06' E 022°48'510.5
2018-Apr-09 13:30N 38°01' E 022°51'510.7
2018-Apr-09 13:00N 37°58' E 022°56'3 6.7
2018-Apr-09 12:30N 37°56' E 022°60'3 6.2
2018-Apr-09 12:00N 37°54' E 023°03'510.6
2018-Apr-09 11:30N 37°54' E 023°10'510.4
2018-Apr-09 11:00N 37°55' E 023°16'510.3
2018-Apr-09 10:30N 37°57' E 023°23'4 7.3
2018-Apr-09 10:00N 37°60' E 023°25'510.3
2018-Apr-09 09:30N 38°02' E 023°32'0 0.8
2018-Apr-09 09:00N 38°01' E 023°32'0 0.1
2018-Apr-09 08:30N 38°01' E 023°32'0 0.1
2018-Apr-09 08:00N 38°01' E 023°32'0 0.0
2018-Apr-09 07:30N 38°01' E 023°32'0 0.0
2018-Apr-09 07:00N 38°01' E 023°32'0 0.0
2018-Apr-09 06:30N 38°01' E 023°32'0 0.0
2018-Apr-09 06:00N 38°01' E 023°32'0 0.0
2018-Apr-09 05:30N 38°01' E 023°32'0 0.1
2018-Apr-09 05:00N 38°01' E 023°32'0 0.0
2018-Apr-09 04:30N 38°01' E 023°32'0 0.0
2018-Apr-09 04:00N 38°01' E 023°32'0 0.0
2018-Apr-09 03:30N 38°01' E 023°32'0 0.0
2018-Apr-09 03:00N 38°01' E 023°32'0 0.0
2018-Apr-09 02:30N 38°01' E 023°32'0 0.1
2018-Apr-09 02:00N 38°01' E 023°32'0 0.1
2018-Apr-09 01:30N 38°01' E 023°32'0 0.0
2018-Apr-09 01:00N 38°01' E 023°32'0 0.1
2018-Apr-09 00:30N 38°01' E 023°32'0 0.0
2018-Apr-09 00:00N 38°01' E 023°32'0 0.0
2018-Apr-08 23:30N 38°01' E 023°32'0 0.0
2018-Apr-08 23:00N 38°01' E 023°32'0 0.0
2018-Apr-08 22:30N 38°01' E 023°32'0 0.1
2018-Apr-08 22:00N 38°02' E 023°32'0 0.1
2018-Apr-08 21:30N 38°02' E 023°32'0 0.1
2018-Apr-08 21:00N 38°01' E 023°32'0 0.0
2018-Apr-08 20:30N 38°01' E 023°32'0 0.0
2018-Apr-08 20:01N 38°01' E 023°32'0 0.0
2018-Apr-08 19:30N 38°01' E 023°32'0 0.0
2018-Apr-08 19:00N 38°01' E 023°32'0 0.0
2018-Apr-08 18:30N 38°01' E 023°32'0 0.0
2018-Apr-08 18:01N 38°01' E 023°32'0 0.0
2018-Apr-08 17:30N 38°01' E 023°32'0 0.0
2018-Apr-08 17:00N 38°01' E 023°32'0 0.0
2018-Apr-08 16:30N 38°01' E 023°32'0 0.0
2018-Apr-08 15:58N 38°01' E 023°32'0 0.0
2018-Apr-08 15:30N 38°01' E 023°32'0 0.0
2018-Apr-08 14:58N 38°01' E 023°32'0 0.0
2018-Apr-08 14:30N 38°01' E 023°32'0 0.0
2018-Apr-08 14:00N 38°01' E 023°32'0 0.1
2018-Apr-08 13:30N 38°01' E 023°32'0 0.1
2018-Apr-08 13:00N 38°01' E 023°32'0 0.0
2018-Apr-08 12:30N 38°01' E 023°32'0 0.0
2018-Apr-08 12:01N 38°01' E 023°32'0 0.0
2018-Apr-08 11:29N 38°01' E 023°32'0 0.1
2018-Apr-08 11:00N 38°01' E 023°32'0 0.0
2018-Apr-08 10:30N 38°01' E 023°32'0 0.0
2018-Apr-08 10:00N 38°01' E 023°32'0 0.0
2018-Apr-08 09:30N 38°01' E 023°32'0 0.1
2018-Apr-08 09:00N 38°01' E 023°32'0 0.1
2018-Apr-08 08:30N 38°01' E 023°32'0 0.0
2018-Apr-08 08:00N 38°01' E 023°32'0 0.1
2018-Apr-08 07:30N 38°01' E 023°32'0 0.0
2018-Apr-08 07:00N 38°01' E 023°32'0 0.0
2018-Apr-08 06:31N 38°02' E 023°32'0 0.0
2018-Apr-08 06:00N 38°02' E 023°32'0 0.1
2018-Apr-08 05:30N 38°01' E 023°32'0 0.0
2018-Apr-08 05:01N 38°01' E 023°32'0 0.0
2018-Apr-08 04:30N 38°01' E 023°32'0 0.0
2018-Apr-08 04:00N 38°01' E 023°32'0 0.0
2018-Apr-08 03:30N 38°01' E 023°32'0 0.0
2018-Apr-08 03:00N 38°01' E 023°32'  
Track history (hours):
 
Tides and Currents Weather Stations Pressure Air Temp Water Temp Dewpoint Dewpoint Depression Visibility Wind Speed Wind Dir Waves Ship Positions

Tzoanna Vi

Last reported at 2018-Apr-18 02:38 UTC. Time now 2018-Apr-20 16:45 UTC.
Position N 37°37' E 023°45'.

Length 84 m; draft 5.7 m.

Type: Cargo ship. MMSI: 237991700.

Date/timePositionNaut miles runAvg speedWind from/ knotsBaromVisibWave heightAir tempDewpointWater temp
2018-Apr-18 02:38N 37°37' E 023°45'2 8.4
2018-Apr-18 02:27N 37°38' E 023°44'4 8.7
2018-Apr-18 02:01N 37°41' E 023°41'4 8.8
2018-Apr-18 01:30N 37°45' E 023°39'4 8.9
2018-Apr-18 01:01N 37°49' E 023°36'4 8.7
2018-Apr-18 00:31N 37°50' E 023°31'4 8.7
2018-Apr-18 00:00N 37°52' E 023°26'4 7.7
2018-Apr-17 23:30N 37°55' E 023°23'4 8.2
2018-Apr-17 23:01N 37°58' E 023°26'3 5.8
2018-Apr-17 22:30N 38°00' E 023°28'4 8.4
2018-Apr-17 22:00N 38°01' E 023°33'2 4.5
2018-Apr-17 21:31N 38°02' E 023°35'0 0.0
2018-Apr-17 21:01N 38°02' E 023°35'0 0.0
2018-Apr-17 20:31N 38°02' E 023°35'0 0.0
2018-Apr-17 20:01N 38°02' E 023°35'0 0.0
2018-Apr-17 19:30N 38°02' E 023°35'0 0.0
2018-Apr-17 19:00N 38°02' E 023°35'0 0.0
2018-Apr-17 18:31N 38°02' E 023°35'0 0.0
2018-Apr-17 18:00N 38°02' E 023°35'0 0.0
2018-Apr-17 17:30N 38°02' E 023°35'0 0.0
2018-Apr-17 17:00N 38°02' E 023°35'0 0.0
2018-Apr-17 16:31N 38°02' E 023°35'0 0.0
2018-Apr-17 16:00N 38°02' E 023°35'0 0.0
2018-Apr-17 15:30N 38°02' E 023°35'0 0.0
2018-Apr-17 15:00N 38°02' E 023°35'0 0.0
2018-Apr-17 14:30N 38°02' E 023°35'0 0.0
2018-Apr-17 14:00N 38°02' E 023°35'0 0.0
2018-Apr-17 13:30N 38°02' E 023°35'0 0.0
2018-Apr-17 13:00N 38°02' E 023°35'0 0.0
2018-Apr-17 12:30N 38°02' E 023°35'0 0.0
2018-Apr-17 12:00N 38°02' E 023°35'0 0.0
2018-Apr-17 11:31N 38°02' E 023°35'0 0.0
2018-Apr-17 11:00N 38°02' E 023°35'0 0.0
2018-Apr-17 10:30N 38°02' E 023°35'0 0.0
2018-Apr-17 10:00N 38°02' E 023°35'0 0.0
2018-Apr-17 09:30N 38°02' E 023°35'0 0.0
2018-Apr-17 09:00N 38°02' E 023°35'0 0.0
2018-Apr-17 08:30N 38°02' E 023°35'0 0.0
2018-Apr-17 08:01N 38°02' E 023°35'0 0.0
2018-Apr-17 07:31N 38°02' E 023°35'0 0.0
2018-Apr-17 07:01N 38°02' E 023°35'0 0.0
2018-Apr-17 06:30N 38°02' E 023°35'0 0.0
2018-Apr-17 06:00N 38°02' E 023°35'2 4.2
2018-Apr-17 05:30N 38°00' E 023°34'4 7.0
2018-Apr-17 05:00N 37°57' E 023°35'4 8.6
2018-Apr-17 04:30N 37°53' E 023°37'5 9.6
2018-Apr-17 04:01N 37°49' E 023°40'5 9.5
2018-Apr-17 03:30N 37°45' E 023°43'5 9.5
2018-Apr-17 02:57N 37°40' E 023°46'4 9.5
2018-Apr-17 02:30N 37°37' E 023°50'  
2018-Apr-11 21:00N 37°38' E 023°50'8 8.4
2018-Apr-11 20:00N 37°42' E 023°41'5 9.2
2018-Apr-11 19:30N 37°46' E 023°38'4 8.4
2018-Apr-11 19:00N 37°49' E 023°34'5 9.1
2018-Apr-11 18:30N 37°50' E 023°28'4 8.9
2018-Apr-11 18:00N 37°51' E 023°23'4 8.9
2018-Apr-11 17:30N 37°52' E 023°17'5 9.0
2018-Apr-11 17:00N 37°53' E 023°12'4 8.9
2018-Apr-11 16:30N 37°53' E 023°06'4 8.0
2018-Apr-11 16:00N 37°55' E 023°01'3 4.9
2018-Apr-11 15:23N 37°57' E 022°58'2 6.7
2018-Apr-11 15:00N 37°58' E 022°56'4 8.7
2018-Apr-11 14:30N 38°01' E 022°51'4 8.5
2018-Apr-11 14:00N 38°04' E 022°48'4 8.7
2018-Apr-11 13:30N 38°08' E 022°46'4 8.9
2018-Apr-11 13:00N 38°12' E 022°44'7 0.2
2018-Apr-09 15:21N 38°18' E 022°40'410.5
2018-Apr-09 15:00N 38°15' E 022°42'510.6
2018-Apr-09 14:30N 38°10' E 022°45'510.8
2018-Apr-09 14:00N 38°06' E 022°48'510.5
2018-Apr-09 13:30N 38°01' E 022°51'510.7
2018-Apr-09 13:00N 37°58' E 022°56'3 6.7
2018-Apr-09 12:30N 37°56' E 022°60'3 6.2
2018-Apr-09 12:00N 37°54' E 023°03'510.6
2018-Apr-09 11:30N 37°54' E 023°10'510.4
2018-Apr-09 11:00N 37°55' E 023°16'510.3
2018-Apr-09 10:30N 37°57' E 023°23'4 7.3
2018-Apr-09 10:00N 37°60' E 023°25'510.3
2018-Apr-09 09:30N 38°02' E 023°32'0 0.8
2018-Apr-09 09:00N 38°01' E 023°32'0 0.1
2018-Apr-09 08:30N 38°01' E 023°32'0 0.1
2018-Apr-09 08:00N 38°01' E 023°32'0 0.0
2018-Apr-09 07:30N 38°01' E 023°32'0 0.0
2018-Apr-09 07:00N 38°01' E 023°32'0 0.0
2018-Apr-09 06:30N 38°01' E 023°32'0 0.0
2018-Apr-09 06:00N 38°01' E 023°32'0 0.0
2018-Apr-09 05:30N 38°01' E 023°32'0 0.1
2018-Apr-09 05:00N 38°01' E 023°32'0 0.0
2018-Apr-09 04:30N 38°01' E 023°32'0 0.0
2018-Apr-09 04:00N 38°01' E 023°32'0 0.0
2018-Apr-09 03:30N 38°01' E 023°32'0 0.0
2018-Apr-09 03:00N 38°01' E 023°32'0 0.0
2018-Apr-09 02:30N 38°01' E 023°32'0 0.1
2018-Apr-09 02:00N 38°01' E 023°32'0 0.1
2018-Apr-09 01:30N 38°01' E 023°32'0 0.0
2018-Apr-09 01:00N 38°01' E 023°32'0 0.1
2018-Apr-09 00:30N 38°01' E 023°32'0 0.0
2018-Apr-09 00:00N 38°01' E 023°32'0 0.0
2018-Apr-08 23:30N 38°01' E 023°32'0 0.0
2018-Apr-08 23:00N 38°01' E 023°32'0 0.0
2018-Apr-08 22:30N 38°01' E 023°32'0 0.1
2018-Apr-08 22:00N 38°02' E 023°32'0 0.1
2018-Apr-08 21:30N 38°02' E 023°32'0 0.1
2018-Apr-08 21:00N 38°01' E 023°32'0 0.0
2018-Apr-08 20:30N 38°01' E 023°32'0 0.0
2018-Apr-08 20:01N 38°01' E 023°32'0 0.0
2018-Apr-08 19:30N 38°01' E 023°32'0 0.0
2018-Apr-08 19:00N 38°01' E 023°32'0 0.0
2018-Apr-08 18:30N 38°01' E 023°32'0 0.0
2018-Apr-08 18:01N 38°01' E 023°32'0 0.0
2018-Apr-08 17:30N 38°01' E 023°32'0 0.0
2018-Apr-08 17:00N 38°01' E 023°32'0 0.0
2018-Apr-08 16:30N 38°01' E 023°32'0 0.0
2018-Apr-08 15:58N 38°01' E 023°32'0 0.0
2018-Apr-08 15:30N 38°01' E 023°32'0 0.0
2018-Apr-08 14:58N 38°01' E 023°32'0 0.0
2018-Apr-08 14:30N 38°01' E 023°32'0 0.0
2018-Apr-08 14:00N 38°01' E 023°32'0 0.1
2018-Apr-08 13:30N 38°01' E 023°32'0 0.1
2018-Apr-08 13:00N 38°01' E 023°32'0 0.0
2018-Apr-08 12:30N 38°01' E 023°32'0 0.0
2018-Apr-08 12:01N 38°01' E 023°32'0 0.0
2018-Apr-08 11:29N 38°01' E 023°32'0 0.1
2018-Apr-08 11:00N 38°01' E 023°32'0 0.0
2018-Apr-08 10:30N 38°01' E 023°32'0 0.0
2018-Apr-08 10:00N 38°01' E 023°32'0 0.0
2018-Apr-08 09:30N 38°01' E 023°32'0 0.1
2018-Apr-08 09:00N 38°01' E 023°32'0 0.1
2018-Apr-08 08:30N 38°01' E 023°32'0 0.0
2018-Apr-08 08:00N 38°01' E 023°32'0 0.1
2018-Apr-08 07:30N 38°01' E 023°32'0 0.0
2018-Apr-08 07:00N 38°01' E 023°32'0 0.0
2018-Apr-08 06:31N 38°02' E 023°32'0 0.0
2018-Apr-08 06:00N 38°02' E 023°32'0 0.1
2018-Apr-08 05:30N 38°01' E 023°32'0 0.0
2018-Apr-08 05:01N 38°01' E 023°32'0 0.0
2018-Apr-08 04:30N 38°01' E 023°32'0 0.0
2018-Apr-08 04:00N 38°01' E 023°32'0 0.0
2018-Apr-08 03:30N 38°01' E 023°32'0 0.0
2018-Apr-08 03:00N 38°01' E 023°32'  

Dump ship's entire track history